sensor_id;sensor_type;location;lat;lon;timestamp;P1;durP1;ratioP1;P2;durP2;ratioP2
2652;SDS011;1336;48.692;9.144;2023-05-16T05:00:48;41.40;;;35.50;;
2652;SDS011;1336;48.692;9.144;2023-05-16T05:01:39;38.88;;;34.55;;
2652;SDS011;1336;48.692;9.144;2023-05-16T05:02:30;41.90;;;32.83;;
2652;SDS011;1336;48.692;9.144;2023-05-16T05:03:22;36.38;;;32.28;;
2652;SDS011;1336;48.692;9.144;2023-05-16T05:04:13;42.70;;;36.50;;
2652;SDS011;1336;48.692;9.144;2023-05-16T05:05:07;38.35;;;33.30;;
2652;SDS011;1336;48.692;9.144;2023-05-16T05:05:58;37.00;;;32.17;;
2652;SDS011;1336;48.692;9.144;2023-05-16T05:06:50;41.95;;;34.97;;
2652;SDS011;1336;48.692;9.144;2023-05-16T05:07:41;38.40;;;33.30;;
2652;SDS011;1336;48.692;9.144;2023-05-16T05:08:33;38.17;;;33.45;;
2652;SDS011;1336;48.692;9.144;2023-05-16T05:09:23;38.60;;;32.67;;
2652;SDS011;1336;48.692;9.144;2023-05-16T05:10:16;37.47;;;32.05;;
2652;SDS011;1336;48.692;9.144;2023-05-16T05:11:06;39.20;;;34.83;;
2652;SDS011;1336;48.692;9.144;2023-05-16T05:11:58;39.95;;;33.63;;
2652;SDS011;1336;48.692;9.144;2023-05-16T05:12:49;38.90;;;32.70;;
2652;SDS011;1336;48.692;9.144;2023-05-16T05:13:41;37.80;;;33.70;;
2652;SDS011;1336;48.692;9.144;2023-05-16T05:14:31;38.70;;;33.57;;
2652;SDS011;1336;48.692;9.144;2023-05-16T05:15:23;37.55;;;32.97;;
2652;SDS011;1336;48.692;9.144;2023-05-16T05:16:15;41.53;;;33.00;;
2652;SDS011;1336;48.692;9.144;2023-05-16T05:17:07;40.47;;;34.75;;
2652;SDS011;1336;48.692;9.144;2023-05-16T05:17:57;40.17;;;33.80;;
2652;SDS011;1336;48.692;9.144;2023-05-16T05:18:49;39.17;;;33.38;;
2652;SDS011;1336;48.692;9.144;2023-05-16T05:19:40;38.13;;;33.90;;
2652;SDS011;1336;48.692;9.144;2023-05-16T05:20:32;40.15;;;33.40;;
2652;SDS011;1336;48.692;9.144;2023-05-16T05:21:22;39.90;;;34.73;;
2652;SDS011;1336;48.692;9.144;2023-05-16T05:22:14;39.88;;;34.70;;
2652;SDS011;1336;48.692;9.144;2023-05-16T05:23:05;41.80;;;35.17;;
2652;SDS011;1336;48.692;9.144;2023-05-16T05:23:57;41.55;;;34.40;;
2652;SDS011;1336;48.692;9.144;2023-05-16T05:24:48;41.30;;;36.40;;
2652;SDS011;1336;48.692;9.144;2023-05-16T05:25:39;42.25;;;35.50;;
2652;SDS011;1336;48.692;9.144;2023-05-16T05:26:30;38.30;;;33.20;;
2652;SDS011;1336;48.692;9.144;2023-05-16T05:27:22;40.47;;;34.35;;
2652;SDS011;1336;48.692;9.144;2023-05-16T05:28:14;38.08;;;34.05;;
2652;SDS011;1336;48.692;9.144;2023-05-16T05:29:06;43.13;;;36.90;;
2652;SDS011;1336;48.692;9.144;2023-05-16T05:29:57;39.45;;;34.13;;
2652;SDS011;1336;48.692;9.144;2023-05-16T05:30:49;38.05;;;32.55;;
2652;SDS011;1336;48.692;9.144;2023-05-16T05:31:41;38.13;;;33.93;;
2652;SDS011;1336;48.692;9.144;2023-05-16T05:32:33;39.03;;;34.15;;
2652;SDS011;1336;48.692;9.144;2023-05-16T05:33:25;36.53;;;32.47;;
2652;SDS011;1336;48.692;9.144;2023-05-16T05:34:18;40.25;;;35.63;;
2652;SDS011;1336;48.692;9.144;2023-05-16T05:35:09;40.40;;;34.47;;
2652;SDS011;1336;48.692;9.144;2023-05-16T05:36:00;38.33;;;33.70;;
2652;SDS011;1336;48.692;9.144;2023-05-16T05:36:51;37.90;;;32.70;;
2652;SDS011;1336;48.692;9.144;2023-05-16T05:37:43;39.03;;;32.95;;
2652;SDS011;1336;48.692;9.144;2023-05-16T05:38:34;37.83;;;33.87;;
2652;SDS011;1336;48.692;9.144;2023-05-16T05:39:26;41.90;;;35.80;;
2652;SDS011;1336;48.692;9.144;2023-05-16T05:40:17;40.03;;;33.70;;
2652;SDS011;1336;48.692;9.144;2023-05-16T05:41:08;41.00;;;34.55;;
2652;SDS011;1336;48.692;9.144;2023-05-16T05:42:00;39.50;;;33.80;;
2652;SDS011;1336;48.692;9.144;2023-05-16T06:43:20;33.30;;;29.55;;
2652;SDS011;1336;48.692;9.144;2023-05-16T06:44:12;32.25;;;28.80;;
2652;SDS011;1336;48.692;9.144;2023-05-16T06:45:04;32.45;;;29.02;;
2652;SDS011;1336;48.692;9.144;2023-05-16T06:45:56;37.20;;;30.05;;
2652;SDS011;1336;48.692;9.144;2023-05-16T06:46:47;30.53;;;26.93;;
2652;SDS011;1336;48.692;9.144;2023-05-16T06:47:39;34.22;;;29.80;;
2652;SDS011;1336;48.692;9.144;2023-05-16T06:48:30;32.03;;;28.30;;
2652;SDS011;1336;48.692;9.144;2023-05-16T06:49:22;32.50;;;28.83;;
2652;SDS011;1336;48.692;9.144;2023-05-16T06:50:12;31.77;;;28.40;;
2652;SDS011;1336;48.692;9.144;2023-05-16T06:51:04;31.63;;;28.23;;
2652;SDS011;1336;48.692;9.144;2023-05-16T06:51:56;31.42;;;28.23;;
2652;SDS011;1336;48.692;9.144;2023-05-16T06:52:47;31.40;;;28.00;;
2652;SDS011;1336;48.692;9.144;2023-05-16T06:53:38;32.65;;;29.15;;
2652;SDS011;1336;48.692;9.144;2023-05-16T06:54:29;32.93;;;29.30;;
2652;SDS011;1336;48.692;9.144;2023-05-16T06:55:21;31.33;;;28.08;;
2652;SDS011;1336;48.692;9.144;2023-05-16T06:56:12;33.40;;;29.80;;
2652;SDS011;1336;48.692;9.144;2023-05-16T06:57:03;32.47;;;28.52;;
2652;SDS011;1336;48.692;9.144;2023-05-16T06:57:55;32.10;;;28.67;;
2652;SDS011;1336;48.692;9.144;2023-05-16T06:58:49;30.75;;;27.55;;
2652;SDS011;1336;48.692;9.144;2023-05-16T06:59:39;32.20;;;27.55;;
2652;SDS011;1336;48.692;9.144;2023-05-16T07:00:31;29.42;;;26.33;;
2652;SDS011;1336;48.692;9.144;2023-05-16T07:01:22;34.87;;;28.20;;
2652;SDS011;1336;48.692;9.144;2023-05-16T07:02:14;39.90;;;26.95;;
2652;SDS011;1336;48.692;9.144;2023-05-16T07:03:05;45.40;;;27.17;;
2652;SDS011;1336;48.692;9.144;2023-05-16T07:03:57;30.90;;;25.30;;
2652;SDS011;1336;48.692;9.144;2023-05-16T07:04:48;30.43;;;27.10;;
2652;SDS011;1336;48.692;9.144;2023-05-16T07:05:39;36.88;;;26.13;;
2652;SDS011;1336;48.692;9.144;2023-05-16T07:06:30;37.85;;;26.70;;
2652;SDS011;1336;48.692;9.144;2023-05-16T07:07:22;40.78;;;27.27;;
2652;SDS011;1336;48.692;9.144;2023-05-16T07:08:13;42.30;;;25.87;;
2652;SDS011;1336;48.692;9.144;2023-05-16T07:09:05;47.10;;;27.00;;
2652;SDS011;1336;48.692;9.144;2023-05-16T07:09:56;40.30;;;26.67;;
2652;SDS011;1336;48.692;9.144;2023-05-16T07:10:48;37.40;;;25.08;;
2652;SDS011;1336;48.692;9.144;2023-05-16T07:11:38;35.90;;;26.30;;
2652;SDS011;1336;48.692;9.144;2023-05-16T07:12:30;33.17;;;25.17;;
2652;SDS011;1336;48.692;9.144;2023-05-16T07:13:21;40.33;;;25.87;;
2652;SDS011;1336;48.692;9.144;2023-05-16T07:14:14;31.25;;;26.92;;
2652;SDS011;1336;48.692;9.144;2023-05-16T07:15:05;32.17;;;27.67;;
2652;SDS011;1336;48.692;9.144;2023-05-16T07:15:57;30.27;;;26.05;;
2652;SDS011;1336;48.692;9.144;2023-05-16T07:16:48;29.13;;;25.10;;
2652;SDS011;1336;48.692;9.144;2023-05-16T07:17:40;40.63;;;24.70;;
2652;SDS011;1336;48.692;9.144;2023-05-16T07:18:31;37.67;;;25.37;;
2652;SDS011;1336;48.692;9.144;2023-05-16T07:19:22;34.13;;;26.52;;
2652;SDS011;1336;48.692;9.144;2023-05-16T07:20:13;28.27;;;25.37;;
2652;SDS011;1336;48.692;9.144;2023-05-16T07:21:05;27.15;;;24.08;;
2652;SDS011;1336;48.692;9.144;2023-05-16T07:21:55;29.03;;;24.83;;
2652;SDS011;1336;48.692;9.144;2023-05-16T07:22:47;29.33;;;25.15;;
2652;SDS011;1336;48.692;9.144;2023-05-16T07:23:38;27.40;;;24.50;;
2652;SDS011;1336;48.692;9.144;2023-05-16T07:24:30;27.30;;;24.50;;
2652;SDS011;1336;48.692;9.144;2023-05-16T07:25:21;27.70;;;24.80;;
2652;SDS011;1336;48.692;9.144;2023-05-16T07:26:12;28.10;;;23.10;;
2652;SDS011;1336;48.692;9.144;2023-05-16T07:27:04;27.65;;;23.88;;
2652;SDS011;1336;48.692;9.144;2023-05-16T07:27:55;32.47;;;24.10;;
2652;SDS011;1336;48.692;9.144;2023-05-16T07:28:46;27.65;;;23.73;;
2652;SDS011;1336;48.692;9.144;2023-05-16T07:29:39;24.65;;;21.83;;
2652;SDS011;1336;48.692;9.144;2023-05-16T07:30:31;26.75;;;23.83;;
2652;SDS011;1336;48.692;9.144;2023-05-16T07:31:22;31.83;;;22.87;;
2652;SDS011;1336;48.692;9.144;2023-05-16T07:32:14;25.27;;;21.40;;
2652;SDS011;1336;48.692;9.144;2023-05-16T07:33:06;26.17;;;23.17;;
2652;SDS011;1336;48.692;9.144;2023-05-16T07:33:56;30.40;;;22.50;;
2652;SDS011;1336;48.692;9.144;2023-05-16T07:34:48;28.38;;;21.85;;
2652;SDS011;1336;48.692;9.144;2023-05-16T07:35:39;27.83;;;22.93;;
2652;SDS011;1336;48.692;9.144;2023-05-16T07:36:31;30.27;;;23.27;;
2652;SDS011;1336;48.692;9.144;2023-05-16T07:37:22;31.35;;;21.75;;
2652;SDS011;1336;48.692;9.144;2023-05-16T07:38:14;34.63;;;21.30;;
2652;SDS011;1336;48.692;9.144;2023-05-16T07:39:05;23.50;;;21.10;;
2652;SDS011;1336;48.692;9.144;2023-05-16T07:39:56;23.65;;;21.20;;
2652;SDS011;1336;48.692;9.144;2023-05-16T07:40:47;31.73;;;22.20;;
2652;SDS011;1336;48.692;9.144;2023-05-16T07:41:39;24.77;;;20.73;;
2652;SDS011;1336;48.692;9.144;2023-05-16T07:42:30;25.93;;;22.00;;
2652;SDS011;1336;48.692;9.144;2023-05-16T07:43:21;29.08;;;22.05;;
2652;SDS011;1336;48.692;9.144;2023-05-16T07:44:12;26.30;;;21.97;;
2652;SDS011;1336;48.692;9.144;2023-05-16T07:45:06;29.00;;;21.08;;
2652;SDS011;1336;48.692;9.144;2023-05-16T07:45:57;23.75;;;19.88;;
2652;SDS011;1336;48.692;9.144;2023-05-16T07:46:49;66.10;;;21.95;;
2652;SDS011;1336;48.692;9.144;2023-05-16T07:47:39;104.90;;;25.10;;
2652;SDS011;1336;48.692;9.144;2023-05-16T07:48:31;71.03;;;25.08;;
2652;SDS011;1336;48.692;9.144;2023-05-16T07:49:22;117.53;;;25.60;;
2652;SDS011;1336;48.692;9.144;2023-05-16T07:50:13;73.00;;;22.52;;
2652;SDS011;1336;48.692;9.144;2023-05-16T07:51:04;72.90;;;21.37;;
2652;SDS011;1336;48.692;9.144;2023-05-16T07:51:56;25.85;;;19.10;;
2652;SDS011;1336;48.692;9.144;2023-05-16T07:52:47;86.97;;;23.53;;
2652;SDS011;1336;48.692;9.144;2023-05-16T07:53:39;50.83;;;20.02;;
2652;SDS011;1336;48.692;9.144;2023-05-16T07:54:31;33.67;;;18.02;;
2652;SDS011;1336;48.692;9.144;2023-05-16T07:55:23;52.28;;;20.52;;
2652;SDS011;1336;48.692;9.144;2023-05-16T07:56:14;39.27;;;18.37;;
2652;SDS011;1336;48.692;9.144;2023-05-16T07:57:05;31.95;;;19.17;;
2652;SDS011;1336;48.692;9.144;2023-05-16T07:57:56;28.60;;;18.73;;
2652;SDS011;1336;48.692;9.144;2023-05-16T07:58:48;32.00;;;19.52;;
2652;SDS011;1336;48.692;9.144;2023-05-16T07:59:39;38.25;;;18.02;;
2652;SDS011;1336;48.692;9.144;2023-05-16T08:00:32;30.80;;;17.08;;
2652;SDS011;1336;48.692;9.144;2023-05-16T08:01:23;20.77;;;16.10;;
2652;SDS011;1336;48.692;9.144;2023-05-16T08:02:15;25.52;;;18.25;;
2652;SDS011;1336;48.692;9.144;2023-05-16T08:03:06;17.43;;;15.70;;
2652;SDS011;1336;48.692;9.144;2023-05-16T08:03:57;18.88;;;15.50;;
2652;SDS011;1336;48.692;9.144;2023-05-16T08:04:48;17.17;;;15.17;;
2652;SDS011;1336;48.692;9.144;2023-05-16T08:05:40;26.90;;;15.95;;
2652;SDS011;1336;48.692;9.144;2023-05-16T08:06:31;19.60;;;15.23;;
2652;SDS011;1336;48.692;9.144;2023-05-16T08:07:23;37.17;;;16.80;;
2652;SDS011;1336;48.692;9.144;2023-05-16T08:08:14;19.23;;;15.15;;
2652;SDS011;1336;48.692;9.144;2023-05-16T08:09:06;42.95;;;17.38;;
2652;SDS011;1336;48.692;9.144;2023-05-16T08:09:57;33.35;;;17.10;;
2652;SDS011;1336;48.692;9.144;2023-05-16T08:10:49;38.40;;;16.67;;
2652;SDS011;1336;48.692;9.144;2023-05-16T08:11:40;72.67;;;22.73;;
2652;SDS011;1336;48.692;9.144;2023-05-16T08:12:34;33.30;;;17.15;;
2652;SDS011;1336;48.692;9.144;2023-05-16T08:13:25;41.93;;;17.47;;
2652;SDS011;1336;48.692;9.144;2023-05-16T08:14:16;52.55;;;19.23;;
2652;SDS011;1336;48.692;9.144;2023-05-16T08:15:08;40.07;;;17.37;;
2652;SDS011;1336;48.692;9.144;2023-05-16T08:16:01;41.17;;;19.55;;
2652;SDS011;1336;48.692;9.144;2023-05-16T08:16:52;33.95;;;17.33;;
2652;SDS011;1336;48.692;9.144;2023-05-16T08:17:44;46.85;;;18.77;;
2652;SDS011;1336;48.692;9.144;2023-05-16T08:18:35;43.27;;;19.80;;
2652;SDS011;1336;48.692;9.144;2023-05-16T08:19:27;37.70;;;19.52;;
2652;SDS011;1336;48.692;9.144;2023-05-16T08:20:18;40.83;;;20.30;;
2652;SDS011;1336;48.692;9.144;2023-05-16T08:21:10;37.70;;;20.27;;
2652;SDS011;1336;48.692;9.144;2023-05-16T08:22:01;34.97;;;18.83;;
2652;SDS011;1336;48.692;9.144;2023-05-16T08:22:53;43.72;;;19.13;;
2652;SDS011;1336;48.692;9.144;2023-05-16T08:23:44;45.33;;;19.90;;
2652;SDS011;1336;48.692;9.144;2023-05-16T08:24:36;30.85;;;18.05;;
2652;SDS011;1336;48.692;9.144;2023-05-16T08:25:28;29.02;;;17.38;;
2652;SDS011;1336;48.692;9.144;2023-05-16T08:26:20;29.13;;;16.85;;
2652;SDS011;1336;48.692;9.144;2023-05-16T08:27:12;31.88;;;17.60;;
2652;SDS011;1336;48.692;9.144;2023-05-16T08:28:02;30.43;;;17.13;;
2652;SDS011;1336;48.692;9.144;2023-05-16T08:28:54;35.45;;;16.95;;
2652;SDS011;1336;48.692;9.144;2023-05-16T08:29:45;26.03;;;17.07;;
2652;SDS011;1336;48.692;9.144;2023-05-16T08:30:37;25.17;;;16.30;;
2652;SDS011;1336;48.692;9.144;2023-05-16T08:31:29;24.80;;;17.37;;
2652;SDS011;1336;48.692;9.144;2023-05-16T08:32:21;24.30;;;16.55;;
2652;SDS011;1336;48.692;9.144;2023-05-16T08:33:12;33.73;;;18.03;;
2652;SDS011;1336;48.692;9.144;2023-05-16T08:34:04;30.23;;;16.98;;
2652;SDS011;1336;48.692;9.144;2023-05-16T08:34:55;23.17;;;16.05;;
2652;SDS011;1336;48.692;9.144;2023-05-16T08:35:47;24.15;;;17.00;;
2652;SDS011;1336;48.692;9.144;2023-05-16T08:36:39;30.55;;;17.45;;
2652;SDS011;1336;48.692;9.144;2023-05-16T08:37:31;20.60;;;16.75;;
2652;SDS011;1336;48.692;9.144;2023-05-16T08:38:22;21.35;;;18.20;;
2652;SDS011;1336;48.692;9.144;2023-05-16T08:39:14;26.50;;;18.45;;
2652;SDS011;1336;48.692;9.144;2023-05-16T08:40:08;38.50;;;20.00;;
2652;SDS011;1336;48.692;9.144;2023-05-16T08:41:00;31.52;;;19.05;;
2652;SDS011;1336;48.692;9.144;2023-05-16T08:41:51;39.70;;;21.07;;
2652;SDS011;1336;48.692;9.144;2023-05-16T08:42:43;37.25;;;20.90;;
2652;SDS011;1336;48.692;9.144;2023-05-16T08:43:34;37.50;;;19.80;;
2652;SDS011;1336;48.692;9.144;2023-05-16T08:44:27;34.10;;;19.85;;
2652;SDS011;1336;48.692;9.144;2023-05-16T08:45:18;25.48;;;19.10;;
2652;SDS011;1336;48.692;9.144;2023-05-16T08:46:09;22.05;;;18.83;;
2652;SDS011;1336;48.692;9.144;2023-05-16T08:47:04;23.13;;;17.73;;
2652;SDS011;1336;48.692;9.144;2023-05-16T08:48:03;24.05;;;17.20;;
2652;SDS011;1336;48.692;9.144;2023-05-16T08:48:57;21.13;;;16.83;;
2652;SDS011;1336;48.692;9.144;2023-05-16T08:49:53;23.85;;;17.55;;
2652;SDS011;1336;48.692;9.144;2023-05-16T08:50:47;30.80;;;16.83;;
2652;SDS011;1336;48.692;9.144;2023-05-16T08:51:39;20.05;;;17.13;;
2652;SDS011;1336;48.692;9.144;2023-05-16T08:52:30;24.15;;;17.70;;
2652;SDS011;1336;48.692;9.144;2023-05-16T08:53:25;19.70;;;16.98;;
2652;SDS011;1336;48.692;9.144;2023-05-16T08:54:21;26.23;;;17.75;;
2652;SDS011;1336;48.692;9.144;2023-05-16T08:55:15;17.27;;;15.68;;
2652;SDS011;1336;48.692;9.144;2023-05-16T08:56:08;29.85;;;17.73;;
2652;SDS011;1336;48.692;9.144;2023-05-16T08:57:05;21.92;;;15.60;;
2652;SDS011;1336;48.692;9.144;2023-05-16T08:57:56;36.80;;;18.35;;
2652;SDS011;1336;48.692;9.144;2023-05-16T08:58:48;33.85;;;17.77;;
2652;SDS011;1336;48.692;9.144;2023-05-16T08:59:39;45.55;;;18.20;;
2652;SDS011;1336;48.692;9.144;2023-05-16T09:00:34;29.95;;;18.00;;
2652;SDS011;1336;48.692;9.144;2023-05-16T09:01:26;42.15;;;17.23;;
2652;SDS011;1336;48.692;9.144;2023-05-16T09:02:18;33.70;;;16.48;;
2652;SDS011;1336;48.692;9.144;2023-05-16T09:03:11;17.63;;;15.52;;
2652;SDS011;1336;48.692;9.144;2023-05-16T09:04:06;21.98;;;16.40;;
2652;SDS011;1336;48.692;9.144;2023-05-16T09:04:58;24.50;;;16.13;;
2652;SDS011;1336;48.692;9.144;2023-05-16T09:05:50;22.48;;;16.60;;
2652;SDS011;1336;48.692;9.144;2023-05-16T09:06:41;34.05;;;18.08;;
2652;SDS011;1336;48.692;9.144;2023-05-16T09:07:33;26.92;;;17.02;;
2652;SDS011;1336;48.692;9.144;2023-05-16T09:08:24;29.83;;;17.20;;
2652;SDS011;1336;48.692;9.144;2023-05-16T09:09:16;19.58;;;15.80;;
2652;SDS011;1336;48.692;9.144;2023-05-16T09:10:08;23.10;;;16.95;;
2652;SDS011;1336;48.692;9.144;2023-05-16T09:11:01;23.23;;;16.33;;
2652;SDS011;1336;48.692;9.144;2023-05-16T09:11:52;30.15;;;16.92;;
2652;SDS011;1336;48.692;9.144;2023-05-16T09:12:44;36.05;;;18.48;;
2652;SDS011;1336;48.692;9.144;2023-05-16T09:13:36;31.10;;;16.53;;
2652;SDS011;1336;48.692;9.144;2023-05-16T09:14:28;31.80;;;17.77;;
2652;SDS011;1336;48.692;9.144;2023-05-16T09:15:20;26.15;;;16.20;;
2652;SDS011;1336;48.692;9.144;2023-05-16T09:16:12;34.83;;;18.02;;
2652;SDS011;1336;48.692;9.144;2023-05-16T09:17:04;33.30;;;17.42;;
2652;SDS011;1336;48.692;9.144;2023-05-16T09:17:58;27.23;;;17.35;;
2652;SDS011;1336;48.692;9.144;2023-05-16T09:18:52;40.65;;;17.42;;
2652;SDS011;1336;48.692;9.144;2023-05-16T09:19:46;24.52;;;16.83;;
2652;SDS011;1336;48.692;9.144;2023-05-16T09:20:42;41.00;;;17.85;;
2652;SDS011;1336;48.692;9.144;2023-05-16T09:21:35;31.20;;;17.70;;
2652;SDS011;1336;48.692;9.144;2023-05-16T09:22:27;23.53;;;17.40;;
2652;SDS011;1336;48.692;9.144;2023-05-16T09:23:22;27.92;;;18.15;;
2652;SDS011;1336;48.692;9.144;2023-05-16T09:24:13;24.48;;;17.63;;
2652;SDS011;1336;48.692;9.144;2023-05-16T09:25:05;25.00;;;17.90;;
2652;SDS011;1336;48.692;9.144;2023-05-16T09:25:57;20.85;;;18.10;;
2652;SDS011;1336;48.692;9.144;2023-05-16T09:26:49;25.30;;;18.13;;
2652;SDS011;1336;48.692;9.144;2023-05-16T09:27:40;30.23;;;19.20;;
2652;SDS011;1336;48.692;9.144;2023-05-16T09:28:31;31.30;;;18.45;;
2652;SDS011;1336;48.692;9.144;2023-05-16T09:29:22;27.53;;;17.63;;
2652;SDS011;1336;48.692;9.144;2023-05-16T09:30:14;21.13;;;18.90;;
2652;SDS011;1336;48.692;9.144;2023-05-16T09:31:18;24.95;;;18.42;;
2652;SDS011;1336;48.692;9.144;2023-05-16T09:32:12;25.85;;;19.55;;
2652;SDS011;1336;48.692;9.144;2023-05-16T09:33:06;29.02;;;20.02;;
2652;SDS011;1336;48.692;9.144;2023-05-16T09:33:57;20.98;;;18.08;;
2652;SDS011;1336;48.692;9.144;2023-05-16T09:34:49;24.27;;;19.10;;
2652;SDS011;1336;48.692;9.144;2023-05-16T09:35:41;19.33;;;17.52;;
2652;SDS011;1336;48.692;9.144;2023-05-16T09:36:33;21.05;;;18.83;;
2652;SDS011;1336;48.692;9.144;2023-05-16T09:37:25;21.60;;;19.45;;
2652;SDS011;1336;48.692;9.144;2023-05-16T09:38:16;19.08;;;17.35;;
2652;SDS011;1336;48.692;9.144;2023-05-16T09:39:07;20.27;;;18.37;;
2652;SDS011;1336;48.692;9.144;2023-05-16T09:39:59;20.90;;;18.10;;
2652;SDS011;1336;48.692;9.144;2023-05-16T09:40:49;22.20;;;17.90;;
2652;SDS011;1336;48.692;9.144;2023-05-16T09:41:41;20.88;;;18.85;;
2652;SDS011;1336;48.692;9.144;2023-05-16T09:42:32;21.77;;;19.67;;
2652;SDS011;1336;48.692;9.144;2023-05-16T09:43:24;21.70;;;19.27;;
2652;SDS011;1336;48.692;9.144;2023-05-16T09:44:16;21.83;;;19.60;;
2652;SDS011;1336;48.692;9.144;2023-05-16T09:45:10;21.17;;;19.00;;
2652;SDS011;1336;48.692;9.144;2023-05-16T09:46:02;23.05;;;20.55;;
2652;SDS011;1336;48.692;9.144;2023-05-16T09:46:54;22.98;;;20.60;;
2652;SDS011;1336;48.692;9.144;2023-05-16T09:47:45;22.60;;;20.23;;
2652;SDS011;1336;48.692;9.144;2023-05-16T09:48:40;23.13;;;20.83;;
2652;SDS011;1336;48.692;9.144;2023-05-16T09:49:35;22.05;;;19.75;;
2652;SDS011;1336;48.692;9.144;2023-05-16T09:50:26;21.95;;;19.75;;
2652;SDS011;1336;48.692;9.144;2023-05-16T09:51:20;21.77;;;19.63;;
2652;SDS011;1336;48.692;9.144;2023-05-16T09:52:13;23.58;;;21.02;;
2652;SDS011;1336;48.692;9.144;2023-05-16T09:53:04;23.67;;;21.38;;
2652;SDS011;1336;48.692;9.144;2023-05-16T09:53:57;23.10;;;19.50;;
2652;SDS011;1336;48.692;9.144;2023-05-16T09:54:48;22.88;;;19.75;;
2652;SDS011;1336;48.692;9.144;2023-05-16T09:55:39;21.20;;;19.10;;
2652;SDS011;1336;48.692;9.144;2023-05-16T09:56:31;23.10;;;20.90;;
2652;SDS011;1336;48.692;9.144;2023-05-16T09:57:22;21.40;;;19.10;;
2652;SDS011;1336;48.692;9.144;2023-05-16T09:58:16;22.25;;;20.05;;
2652;SDS011;1336;48.692;9.144;2023-05-16T09:59:09;22.00;;;19.80;;
2652;SDS011;1336;48.692;9.144;2023-05-16T10:00:01;20.17;;;18.13;;
2652;SDS011;1336;48.692;9.144;2023-05-16T10:00:57;24.25;;;21.85;;
2652;SDS011;1336;48.692;9.144;2023-05-16T10:01:49;20.73;;;18.52;;
2652;SDS011;1336;48.692;9.144;2023-05-16T10:02:41;23.73;;;20.42;;
2652;SDS011;1336;48.692;9.144;2023-05-16T10:03:34;22.77;;;20.42;;
2652;SDS011;1336;48.692;9.144;2023-05-16T10:04:28;22.38;;;20.10;;
2652;SDS011;1336;48.692;9.144;2023-05-16T10:05:20;23.08;;;20.80;;
2652;SDS011;1336;48.692;9.144;2023-05-16T10:06:12;22.85;;;20.50;;
2652;SDS011;1336;48.692;9.144;2023-05-16T10:07:05;22.90;;;20.50;;
2652;SDS011;1336;48.692;9.144;2023-05-16T10:07:58;21.95;;;19.75;;
2652;SDS011;1336;48.692;9.144;2023-05-16T10:08:53;23.60;;;19.85;;
2652;SDS011;1336;48.692;9.144;2023-05-16T10:09:44;21.27;;;19.15;;
2652;SDS011;1336;48.692;9.144;2023-05-16T10:10:36;22.63;;;20.13;;
2652;SDS011;1336;48.692;9.144;2023-05-16T10:11:29;21.73;;;19.52;;
2652;SDS011;1336;48.692;9.144;2023-05-16T10:12:20;21.23;;;19.23;;
2652;SDS011;1336;48.692;9.144;2023-05-16T10:13:20;22.27;;;19.92;;
2652;SDS011;1336;48.692;9.144;2023-05-16T10:14:12;21.25;;;19.25;;
2652;SDS011;1336;48.692;9.144;2023-05-16T10:15:08;23.38;;;20.98;;
2652;SDS011;1336;48.692;9.144;2023-05-16T10:16:00;23.40;;;20.90;;
2652;SDS011;1336;48.692;9.144;2023-05-16T10:16:57;22.70;;;20.33;;
2652;SDS011;1336;48.692;9.144;2023-05-16T10:17:48;23.00;;;20.70;;
2652;SDS011;1336;48.692;9.144;2023-05-16T10:18:43;21.65;;;19.52;;
2652;SDS011;1336;48.692;9.144;2023-05-16T10:19:36;22.35;;;20.05;;
2652;SDS011;1336;48.692;9.144;2023-05-16T10:20:29;22.35;;;19.83;;
2652;SDS011;1336;48.692;9.144;2023-05-16T10:21:20;23.87;;;20.37;;
2652;SDS011;1336;48.692;9.144;2023-05-16T10:22:14;25.55;;;21.17;;
2652;SDS011;1336;48.692;9.144;2023-05-16T10:23:07;22.92;;;20.63;;
2652;SDS011;1336;48.692;9.144;2023-05-16T10:24:04;24.55;;;20.50;;
2652;SDS011;1336;48.692;9.144;2023-05-16T10:24:57;22.63;;;19.83;;
2652;SDS011;1336;48.692;9.144;2023-05-16T10:25:54;22.60;;;20.00;;
2652;SDS011;1336;48.692;9.144;2023-05-16T10:26:46;21.27;;;18.60;;
2652;SDS011;1336;48.692;9.144;2023-05-16T10:27:38;22.42;;;19.63;;
2652;SDS011;1336;48.692;9.144;2023-05-16T10:28:31;21.60;;;19.35;;
2652;SDS011;1336;48.692;9.144;2023-05-16T10:29:23;21.92;;;19.40;;
2652;SDS011;1336;48.692;9.144;2023-05-16T10:30:16;21.83;;;19.52;;
2652;SDS011;1336;48.692;9.144;2023-05-16T10:31:08;21.42;;;19.23;;
2652;SDS011;1336;48.692;9.144;2023-05-16T10:32:01;23.60;;;21.15;;
2652;SDS011;1336;48.692;9.144;2023-05-16T10:32:54;21.52;;;19.35;;
2652;SDS011;1336;48.692;9.144;2023-05-16T10:33:47;23.08;;;19.98;;
2652;SDS011;1336;48.692;9.144;2023-05-16T10:34:40;27.50;;;20.67;;
2652;SDS011;1336;48.692;9.144;2023-05-16T10:35:33;23.48;;;20.98;;
2652;SDS011;1336;48.692;9.144;2023-05-16T10:36:24;23.40;;;20.90;;
2652;SDS011;1336;48.692;9.144;2023-05-16T10:37:16;28.13;;;21.20;;
2652;SDS011;1336;48.692;9.144;2023-05-16T10:38:07;22.20;;;19.90;;
2652;SDS011;1336;48.692;9.144;2023-05-16T10:39:01;23.50;;;21.00;;
2652;SDS011;1336;48.692;9.144;2023-05-16T10:39:53;20.13;;;18.05;;
2652;SDS011;1336;48.692;9.144;2023-05-16T10:40:45;24.77;;;20.45;;
2652;SDS011;1336;48.692;9.144;2023-05-16T10:41:37;20.90;;;18.80;;
2652;SDS011;1336;48.692;9.144;2023-05-16T10:42:30;22.50;;;19.20;;
2652;SDS011;1336;48.692;9.144;2023-05-16T10:43:21;20.90;;;18.80;;
2652;SDS011;1336;48.692;9.144;2023-05-16T10:44:14;20.90;;;18.80;;
2652;SDS011;1336;48.692;9.144;2023-05-16T10:45:14;22.08;;;19.80;;
2652;SDS011;1336;48.692;9.144;2023-05-16T10:46:08;21.70;;;19.23;;
2652;SDS011;1336;48.692;9.144;2023-05-16T10:47:00;23.33;;;20.92;;
2652;SDS011;1336;48.692;9.144;2023-05-16T10:47:54;23.10;;;20.80;;
2652;SDS011;1336;48.692;9.144;2023-05-16T10:48:46;22.35;;;20.05;;
2652;SDS011;1336;48.692;9.144;2023-05-16T10:49:39;21.80;;;19.53;;
2652;SDS011;1336;48.692;9.144;2023-05-16T10:50:32;22.80;;;19.95;;
2652;SDS011;1336;48.692;9.144;2023-05-16T10:51:32;21.70;;;19.52;;
2652;SDS011;1336;48.692;9.144;2023-05-16T10:52:31;21.63;;;19.52;;
2652;SDS011;1336;48.692;9.144;2023-05-16T10:53:28;23.25;;;20.30;;
2652;SDS011;1336;48.692;9.144;2023-05-16T10:54:21;22.35;;;20.08;;
2652;SDS011;1336;48.692;9.144;2023-05-16T10:55:23;22.80;;;20.35;;
2652;SDS011;1336;48.692;9.144;2023-05-16T10:56:15;25.13;;;20.15;;
2652;SDS011;1336;48.692;9.144;2023-05-16T10:57:15;22.98;;;19.88;;
2652;SDS011;1336;48.692;9.144;2023-05-16T10:58:09;28.90;;;20.02;;
2652;SDS011;1336;48.692;9.144;2023-05-16T10:59:00;21.87;;;19.57;;
2652;SDS011;1336;48.692;9.144;2023-05-16T10:59:53;22.63;;;19.75;;
2652;SDS011;1336;48.692;9.144;2023-05-16T11:02:03;20.90;;;18.60;;
2652;SDS011;1336;48.692;9.144;2023-05-16T11:03:18;20.40;;;18.38;;
2652;SDS011;1336;48.692;9.144;2023-05-16T11:04:14;22.50;;;19.70;;
2652;SDS011;1336;48.692;9.144;2023-05-16T11:05:06;21.10;;;18.92;;
2652;SDS011;1336;48.692;9.144;2023-05-16T11:06:07;20.77;;;17.58;;
2652;SDS011;1336;48.692;9.144;2023-05-16T11:06:58;18.42;;;16.63;;
2652;SDS011;1336;48.692;9.144;2023-05-16T11:08:01;18.95;;;16.95;;
2652;SDS011;1336;48.692;9.144;2023-05-16T11:08:57;19.45;;;16.98;;
2652;SDS011;1336;48.692;9.144;2023-05-16T11:10:02;18.17;;;16.33;;
2652;SDS011;1336;48.692;9.144;2023-05-16T11:12:21;19.42;;;16.70;;
2652;SDS011;1336;48.692;9.144;2023-05-16T11:13:13;18.35;;;15.77;;
2652;SDS011;1336;48.692;9.144;2023-05-16T11:14:08;17.00;;;15.20;;
2652;SDS011;1336;48.692;9.144;2023-05-16T11:15:20;16.05;;;14.35;;
2652;SDS011;1336;48.692;9.144;2023-05-16T11:16:25;17.40;;;15.25;;
2652;SDS011;1336;48.692;9.144;2023-05-16T11:17:19;16.48;;;14.80;;
2652;SDS011;1336;48.692;9.144;2023-05-16T11:18:13;18.02;;;16.20;;
2652;SDS011;1336;48.692;9.144;2023-05-16T11:19:05;16.30;;;14.70;;
2652;SDS011;1336;48.692;9.144;2023-05-16T11:19:57;16.75;;;15.00;;